首页
METAR-TAF:

METAR-TAF

机场 :

Matagami, 魁北克, 加拿大

纬度: 49-46N, 经度: 077-49W, 海拔: 281米

当前天气观测

该预报发布于40分钟前的09:00 UTC
静风
温度 -2°C
湿度 100%
气压 1018 hPa
能見度: 14.5公里
散云层高于8500英尺
多云层高于12000英尺
多云层高于16000英尺

METAR: CYNM 010900Z AUTO 00000KT 9SM SCT085 BKN120 BKN160 M02/M02 A3007 RMK SLP197

时间: 05:40 (09:40 UTC)


TAF: 丢失

超过4000个机场的气象观测和天气预报(METAR&TAF报告)。

可查询的气象台以黄色和红色小点在地图上表示。

将鼠标移到小点上方,可查看气象台名称。

然后点击查看天气观测和预报。

如需切换地图:点击带黑十字的绿色按钮放大地图;点击带横线的绿色按钮缩小地图;或者点击绿色箭头查看邻近地区的地图。


METAR-TAF: